EW0112 Galesville MA US current weather conditions

sailwx.info

Wind from 109 at 4 knots gusting 6

Air temperature 25.6° C
Dewpoint 22.2° C

Last reported at 2020-Aug-06 18:01 UTC.
Time now 2020-Aug-06 19:05 UTC

Location: N 38°51' W 076°32'.
View on Google Maps.

See reports from other nearby stations

  
Tides and Currents Weather Stations Pressure Air Temp Water Temp Dewpoint Dewpoint Depression Visibility Wind Speed Wind Dir Waves Ship Positions
date/time (UTC)wind fromknots sea level pressurealtimeterstation pressurevisibilityair tempwater tempwave heightnotes
2020-Aug-06 18:01 109 4 gusting 6 25.6
2020-Aug-06 17:46 124 4 gusting 6 25.6
2020-Aug-06 17:31 085 1 gusting 5 25.6
2020-Aug-06 17:16 087 2 gusting 6 25.0
2020-Aug-06 17:01 074 1 gusting 5 25.0
2020-Aug-06 16:46 079 4 gusting 6 25.0
2020-Aug-06 16:30 115 4 gusting 5 24.4
2020-Aug-06 16:15 105 4 gusting 6 24.4
2020-Aug-06 16:01 079 4 gusting 6 24.4
2020-Aug-06 15:46 108 5 gusting 6 24.4
2020-Aug-06 15:30 101 4 gusting 7 24.4
2020-Aug-06 15:15 101 5 gusting 8 24.4
2020-Aug-06 15:00 102 6 gusting 8 24.4
2020-Aug-06 14:45 096 7 gusting 11 24.4
2020-Aug-06 14:30 067 4 gusting 8 23.9
2020-Aug-06 14:15 080 5 gusting 6 23.9
2020-Aug-06 14:00 054 2 gusting 5 23.9
2020-Aug-06 13:45 044 3 gusting 5 23.9
2020-Aug-06 13:30 058 2 gusting 5 23.9
2020-Aug-06 13:17 043 3 gusting 6 23.9
2020-Aug-06 13:01 075 4 gusting 7 23.9
2020-Aug-06 12:47 098 5 gusting 7 23.3
2020-Aug-06 12:31 077 5 gusting 6 23.3
2020-Aug-06 12:16 068 4 gusting 5 22.8
2020-Aug-06 12:00 051 1 gusting 5 22.8
2020-Aug-06 11:46 042 3 gusting 5 22.8
2020-Aug-06 11:30 041 1 gusting 4 22.2
2020-Aug-06 11:15 047 1 gusting 3 21.7
2020-Aug-06 11:00 044 1 gusting 3 21.7
2020-Aug-06 10:45
2020-Aug-06 10:32
2020-Aug-06 10:16
2020-Aug-06 10:01
2020-Aug-06 09:46
2020-Aug-06 09:31
2020-Aug-06 09:15
2020-Aug-06 09:00
2020-Aug-06 08:45
2020-Aug-06 08:30
2020-Aug-06 08:16
2020-Aug-06 08:01
2020-Aug-06 07:46
2020-Aug-06 07:32
2020-Aug-06 07:16 307 22.8
2020-Aug-06 07:02 328 22.8
2020-Aug-06 06:46 332 22.8
2020-Aug-06 06:31 279 23.3
2020-Aug-06 06:15 301 22.8
2020-Aug-06 06:00 005 22.8
2020-Aug-06 05:45 011 22.8
2020-Aug-06 05:30 320 22.8
2020-Aug-06 05:15 317 23.3
2020-Aug-06 05:01 005 23.3
2020-Aug-06 04:46 354 23.9
2020-Aug-06 04:30 003 23.9
2020-Aug-06 04:16 011 23.9
2020-Aug-06 04:00 319 23.3
2020-Aug-06 03:45 319 23.3
2020-Aug-06 03:30 319 23.3
2020-Aug-06 03:15 005 23.3
2020-Aug-06 03:01 332 23.9
2020-Aug-06 02:45 316 23.9
2020-Aug-06 02:30 316 23.9
2020-Aug-06 02:16 309 23.9
2020-Aug-06 02:00 034 23.9
2020-Aug-06 01:45 287 23.9
2020-Aug-06 01:30 314 24.4
2020-Aug-06 01:17 359 25.0
2020-Aug-06 01:02 279 25.0
2020-Aug-06 00:47 276 25.6
2020-Aug-06 00:32 016 26.1
2020-Aug-06 00:17 214 27.2
2020-Aug-06 00:01 217 1 gusting 4 27.8
2020-Aug-05 23:48 200 2 gusting 4 28.3
2020-Aug-05 23:31 155 1 gusting 3 28.9
2020-Aug-05 23:16 188 1 gusting 3 28.9
2020-Aug-05 23:02 134 28.9
2020-Aug-05 22:46 211 2 gusting 5 28.3
2020-Aug-05 22:31 203 3 gusting 6 28.3
2020-Aug-05 22:16 203 4 gusting 6 28.3
2020-Aug-05 22:00 203 4 gusting 6 28.3
2020-Aug-05 21:45 172 5 gusting 7 28.3
2020-Aug-05 21:30 190 4 gusting 6 28.3
2020-Aug-05 21:15 191 3 gusting 6 28.9
2020-Aug-05 21:00 201 0 gusting 3 28.9
2020-Aug-05 20:46 228 1 gusting 4 28.3
2020-Aug-05 20:30 187 3 gusting 4 28.3
2020-Aug-05 20:15 194 3 gusting 6 28.3
2020-Aug-05 20:00 205 1 gusting 6 28.9
2020-Aug-05 19:45 124 28.9
2020-Aug-05 19:32 204 1 gusting 4 28.3
2020-Aug-05 19:17 235 0 gusting 4 28.3
2020-Aug-05 19:01 222 2 gusting 6 27.8
2020-Aug-05 18:45 157 4 gusting 8 28.3
2020-Aug-05 18:31 120 1 gusting 3 27.8
2020-Aug-05 18:15 105 27.2
2020-Aug-05 18:00 105 4 gusting 6 27.2
2020-Aug-05 17:45 105 2 gusting 4 27.2
2020-Aug-05 17:30 100 4 gusting 5 26.7
2020-Aug-05 17:16 094 2 gusting 4 27.2
2020-Aug-05 17:02 113 2 gusting 4 27.2
2020-Aug-05 16:46 117 1 gusting 4 27.2
2020-Aug-05 16:31 127 26.7
2020-Aug-05 16:15 086 1 gusting 4 26.1
2020-Aug-05 16:00 089 2 gusting 5 26.1
2020-Aug-05 15:45 160 2 gusting 5 26.7
2020-Aug-05 15:31 158 26.1
2020-Aug-05 15:16 127 0 gusting 2 26.1
2020-Aug-05 15:00 132 1 gusting 3 25.6
2020-Aug-05 14:45 091 2 25.6
2020-Aug-05 14:30 083 3 gusting 4 25.6
2020-Aug-05 14:15 052 2 gusting 4 25.0
2020-Aug-05 14:01 023 3 gusting 7 25.0
2020-Aug-05 13:47 038 4 gusting 6 24.4
2020-Aug-05 13:31 032 3 gusting 4 23.9
2020-Aug-05 13:16 028 3 gusting 5 23.3
2020-Aug-05 13:00 029 4 gusting 6 23.3
2020-Aug-05 12:46 012 3 gusting 6 22.8
2020-Aug-05 12:30 008 3 gusting 5 22.2
2020-Aug-05 12:15 012 3 gusting 5 22.2
2020-Aug-05 12:00 355 21.7
2020-Aug-05 11:45 344 21.7
2020-Aug-05 11:31 327 21.1
2020-Aug-05 11:16 327 21.1
2020-Aug-05 11:01 342 20.6
2020-Aug-05 10:46 333 20.0
2020-Aug-05 10:30 338 19.4
2020-Aug-05 10:16
2020-Aug-05 10:01
2020-Aug-05 09:45
2020-Aug-05 09:30
2020-Aug-05 09:15
2020-Aug-05 09:01
2020-Aug-05 08:46
2020-Aug-05 08:31
2020-Aug-05 08:18
2020-Aug-05 08:01
2020-Aug-05 07:46
2020-Aug-05 07:31 257 21.1
2020-Aug-05 07:17 257 21.1
2020-Aug-05 07:01 269 21.1
2020-Aug-05 06:45 319 21.7
2020-Aug-05 06:31 329 21.7
2020-Aug-05 06:15 276 21.7
2020-Aug-05 06:01 322 1 gusting 2 21.7
2020-Aug-05 05:46 336 21.7
2020-Aug-05 05:30 338 22.2
2020-Aug-05 05:15 310 22.2
2020-Aug-05 05:00 335 5 gusting 10 23.3
2020-Aug-05 04:45 285 23.9
2020-Aug-05 04:30 265 24.4
2020-Aug-05 04:15 328 24.4
2020-Aug-05 04:00 027 5 gusting 10 23.9
2020-Aug-05 03:45 025 4 gusting 6 23.9
2020-Aug-05 03:30 330 2 gusting 6 24.4
2020-Aug-05 03:17 033 7 gusting 12 25.0
2020-Aug-05 03:01 018 3 gusting 7 24.4
2020-Aug-05 02:45 277 0 gusting 4 24.4
2020-Aug-05 02:30 013 23.9
2020-Aug-05 02:15 353 1 gusting 3 23.9
2020-Aug-05 02:00 347 23.3
2020-Aug-05 01:45 296 23.3
2020-Aug-05 01:30 301 23.3
2020-Aug-05 01:01 285 0 gusting 3 23.3
2020-Aug-05 00:45 269 0 gusting 2 23.3
2020-Aug-05 00:30 333 23.3
2020-Aug-05 00:17 277 23.3
2020-Aug-05 00:01 259 23.9
2020-Aug-04 23:30 210 4 gusting 6 25.0
2020-Aug-04 23:01 250 3 gusting 7 28.3
2020-Aug-04 22:46 212 1 gusting 3 28.3
2020-Aug-04 22:31 277 1 gusting 6 28.3
2020-Aug-04 22:16 290 0 gusting 7 28.9
2020-Aug-04 22:02 269 1 gusting 7 29.4
2020-Aug-04 21:46 236 2 gusting 10 29.4
2020-Aug-04 21:31 233 2 gusting 6 29.4
2020-Aug-04 21:16 293 3 gusting 13 29.4
2020-Aug-04 21:01 284 6 gusting 10 29.4
2020-Aug-04 20:46 290 1 gusting 8 28.9
2020-Aug-04 20:31 276 3 gusting 6 28.3
2020-Aug-04 20:16 238 1 gusting 8 28.3
2020-Aug-04 20:01 248 3 gusting 8 28.3
2020-Aug-04 19:46 238 4 gusting 7 28.3
2020-Aug-04 19:30 307 3 gusting 8 28.3
2020-Aug-04 19:15 271 3 gusting 11 27.8
2020-Aug-04 19:00 311 3 gusting 9 27.2